Time;durP1;ratioP1;P1;durP2;ratioP2;P2;SDS_P1;SDS_P2;PMS_P1;PMS_P2;Temp;Humidity;BMP_temperature;BMP_pressure;BME280_temperature;BME280_humidity;BME280_pressure;Samples;Min_cycle;Max_cycle;Signal;HPM_P1;HPM_P2
2021/10/11 00:01:58;;;;;;;7.20;5.38;;;;;;;21.27;48.98;102540.56;4991949;28;20046;-59
2021/10/11 00:04:23;;;;;;;7.75;6.00;;;;;;;21.26;49.00;102546.78;4992328;28;20215;-59
2021/10/11 00:06:49;;;;;;;7.82;5.53;;;;;;;21.25;49.22;102549.56;4992451;28;20109;-59
2021/10/11 00:09:14;;;;;;;7.22;6.00;;;;;;;21.22;49.02;102544.47;4993194;28;20042;-60
2021/10/11 00:11:39;;;;;;;7.30;5.37;;;;;;;21.20;49.34;102549.88;4995658;28;20421;-60
2021/10/11 00:14:05;;;;;;;6.30;4.90;;;;;;;21.18;49.39;102559.72;4995739;28;20317;-60
2021/10/11 00:16:30;;;;;;;7.38;5.80;;;;;;;21.16;49.30;102566.94;4995218;28;20335;-59
2021/10/11 00:18:56;;;;;;;7.78;5.20;;;;;;;21.14;49.39;102563.53;4995900;28;20022;-60
2021/10/11 00:21:21;;;;;;;7.23;5.07;;;;;;;21.13;49.17;102565.34;4995591;28;20443;-60
2021/10/11 00:23:47;;;;;;;6.63;5.05;;;;;;;21.12;49.33;102563.63;4994785;28;20296;-60
2021/10/11 00:26:12;;;;;;;6.15;4.90;;;;;;;21.11;49.20;102564.59;4995306;28;20038;-60
2021/10/11 00:28:37;;;;;;;6.47;5.03;;;;;;;21.10;49.29;102580.59;4995272;28;20068;-59
2021/10/11 00:31:03;;;;;;;6.65;4.97;;;;;;;21.08;49.44;102571.88;4994285;28;20104;-59
2021/10/11 00:33:29;;;;;;;6.80;4.70;;;;;;;21.05;49.25;102570.31;4995434;28;20084;-60
2021/10/11 00:35:54;;;;;;;6.45;4.75;;;;;;;21.03;49.40;102566.91;4995344;28;20093;-59
2021/10/11 00:38:19;;;;;;;6.40;4.68;;;;;;;21.00;49.45;102572.44;4993999;28;20018;-59
2021/10/11 00:40:47;;;;;;;7.03;5.05;;;;;;;20.97;49.57;102568.16;4994895;28;20109;-58
2021/10/11 00:43:13;;;;;;;6.50;5.05;;;;;;;20.96;49.42;102579.72;4994113;28;20114;-61
2021/10/11 00:45:38;;;;;;;6.40;4.72;;;;;;;20.95;49.52;102591.28;4995454;28;20058;-60
2021/10/11 00:48:13;;;;;;;6.87;4.87;;;;;;;20.93;49.63;102574.59;4994772;28;20030;-60
2021/10/11 00:50:39;;;;;;;6.82;4.63;;;;;;;20.93;49.50;102579.06;4994738;28;20280;-60
2021/10/11 00:53:04;;;;;;;6.63;4.53;;;;;;;20.92;49.45;102578.22;4994820;28;20122;-61
2021/10/11 00:55:29;;;;;;;7.00;4.68;;;;;;;20.92;49.52;102582.66;4995025;28;20101;-60
2021/10/11 00:57:55;;;;;;;6.10;4.18;;;;;;;20.90;49.48;102580.09;4994391;28;20030;-60
2021/10/11 01:00:20;;;;;;;5.60;4.25;;;;;;;20.89;49.45;102578.44;4994779;28;20042;-59
2021/10/11 01:02:45;;;;;;;6.38;4.43;;;;;;;20.88;49.63;102574.06;4994813;28;20402;-59
2021/10/11 01:05:11;;;;;;;5.88;4.25;;;;;;;20.89;49.75;102572.28;4993911;28;20027;-59
2021/10/11 01:07:39;;;;;;;5.90;4.25;;;;;;;20.86;49.63;102564.53;4994736;28;20335;-59
2021/10/11 01:10:05;;;;;;;6.03;3.75;;;;;;;20.87;49.52;102566.22;4994498;28;20037;-59
2021/10/11 01:12:30;;;;;;;6.03;4.35;;;;;;;20.84;49.47;102568.13;4993781;28;20030;-58
2021/10/11 01:14:55;;;;;;;6.18;4.55;;;;;;;20.83;49.44;102574.38;4994687;28;20023;-60
2021/10/11 01:17:21;;;;;;;5.80;4.15;;;;;;;20.82;49.58;102562.09;4994752;28;20089;-60
2021/10/11 01:19:55;;;;;;;6.18;4.20;;;;;;;20.82;49.73;102563.88;4993323;28;20098;-60
2021/10/11 01:22:33;;;;;;;5.60;4.10;;;;;;;20.81;49.58;102565.69;4994280;28;20433;-60
2021/10/11 01:25:01;;;;;;;5.57;4.05;;;;;;;20.83;49.46;102560.28;4994649;28;20030;-60
2021/10/11 01:27:28;;;;;;;5.88;4.20;;;;;;;20.81;49.68;102554.25;4993513;28;20042;-60
2021/10/11 01:29:55;;;;;;;6.07;3.90;;;;;;;20.81;49.73;102559.53;4994465;28;20065;-60
2021/10/11 01:32:20;;;;;;;6.55;4.07;;;;;;;20.80;49.57;102555.19;4993274;28;20045;-58
2021/10/11 01:34:46;;;;;;;5.25;3.58;;;;;;;20.79;49.48;102556.13;4994489;28;20332;-59
2021/10/11 01:37:11;;;;;;;5.20;3.45;;;;;;;20.78;49.55;102557.94;4993936;28;20373;-59
2021/10/11 01:39:36;;;;;;;5.53;3.50;;;;;;;20.78;49.52;102555.28;4993360;28;20441;-59
2021/10/11 01:42:02;;;;;;;5.32;3.50;;;;;;;20.78;49.63;102559.75;4994303;28;20283;-59
2021/10/11 01:44:27;;;;;;;4.85;3.47;;;;;;;20.76;49.59;102549.25;4994187;28;20505;-59
2021/10/11 01:46:52;;;;;;;5.63;3.45;;;;;;;20.76;49.29;102551.03;4993411;28;20050;-60
2021/10/11 01:49:18;;;;;;;6.18;3.50;;;;;;;20.75;49.44;102546.69;4993692;28;20409;-60
2021/10/11 01:51:44;;;;;;;5.00;3.53;;;;;;;20.77;49.43;102552.72;4994099;28;20026;-60
2021/10/11 01:54:09;;;;;;;5.40;3.42;;;;;;;20.77;49.26;102552.72;4992515;28;20349;-59
2021/10/11 01:56:34;;;;;;;4.90;3.30;;;;;;;20.75;49.40;102554.63;4993999;28;20113;-59
2021/10/11 01:59:02;;;;;;;4.82;3.10;;;;;;;20.75;49.50;102557.28;4993988;28;20288;-59
2021/10/11 02:01:28;;;;;;;5.70;3.88;;;;;;;20.74;49.43;102555.56;4992856;28;20027;-59
2021/10/11 02:03:53;;;;;;;5.83;3.20;;;;;;;20.74;49.46;102556.41;4993542;28;20504;-60
2021/10/11 02:06:18;;;;;;;5.43;3.07;;;;;;;20.75;49.39;102557.28;4993411;28;20327;-59
2021/10/11 02:08:43;;;;;;;5.82;3.30;;;;;;;20.74;49.13;102559.06;4992786;28;20431;-60
2021/10/11 02:11:09;;;;;;;4.93;3.07;;;;;;;20.74;49.48;102560.88;4993426;28;20494;-60
2021/10/11 02:13:34;;;;;;;4.60;3.10;;;;;;;20.73;49.22;102564.47;4993531;28;20272;-60
2021/10/11 02:15:59;;;;;;;5.20;3.15;;;;;;;20.72;49.51;102566.28;4992541;28;20268;-60
2021/10/11 02:18:24;;;;;;;5.60;2.95;;;;;;;20.72;49.33;102570.75;4992999;28;20125;-60
2021/10/11 02:20:53;;;;;;;4.93;2.97;;;;;;;20.69;49.34;102566.47;4993373;28;20042;-61
2021/10/11 02:23:18;;;;;;;4.97;3.17;;;;;;;20.70;49.41;102578.78;4992129;28;20465;-59
2021/10/11 02:25:43;;;;;;;5.15;2.97;;;;;;;20.70;49.40;102570.00;4993451;28;20110;-59
2021/10/11 02:28:08;;;;;;;4.63;3.17;;;;;;;20.69;49.47;102570.94;4992821;28;20529;-59
2021/10/11 02:30:34;;;;;;;5.38;2.83;;;;;;;20.68;49.40;102572.75;4992453;28;20069;-59
2021/10/11 02:32:59;;;;;;;4.90;3.10;;;;;;;20.67;49.25;102564.91;4992336;28;20034;-60
2021/10/11 02:35:24;;;;;;;5.07;3.30;;;;;;;20.68;49.31;102563.94;4992778;28;20034;-60
2021/10/11 02:37:50;;;;;;;4.95;2.85;;;;;;;20.67;49.38;102559.59;4992970;28;20076;-58
2021/10/11 02:40:15;;;;;;;3.92;2.50;;;;;;;20.66;49.51;102564.03;4992691;28;20195;-59
2021/10/11 02:42:40;;;;;;;4.63;2.63;;;;;;;20.64;49.41;102565.94;4992059;28;20046;-60
2021/10/11 02:45:09;;;;;;;4.15;2.47;;;;;;;20.64;49.46;102560.63;4993096;28;20516;-60
2021/10/11 02:47:34;;;;;;;4.35;2.38;;;;;;;20.64;49.58;102565.94;4994036;28;20386;-60
2021/10/11 02:49:59;;;;;;;4.07;2.30;;;;;;;20.63;49.58;102564.19;4993121;28;20038;-59
2021/10/11 02:52:28;;;;;;;3.90;2.40;;;;;;;20.61;49.55;102559.00;4992288;28;20047;-59
2021/10/11 02:54:53;;;;;;;5.18;2.40;;;;;;;20.61;49.39;102563.44;4992999;28;20291;-59
2021/10/11 02:57:18;;;;;;;4.30;2.22;;;;;;;20.60;49.55;102559.09;4991750;28;20030;-60
2021/10/11 02:59:43;;;;;;;4.73;2.50;;;;;;;20.60;49.50;102564.38;4992690;28;20030;-59
2021/10/11 03:02:09;;;;;;;4.10;2.30;;;;;;;20.59;49.66;102557.41;4992324;28;20321;-58
2021/10/11 03:04:35;;;;;;;4.03;2.17;;;;;;;20.60;49.46;102556.44;4992051;28;20026;-60
2021/10/11 03:07:00;;;;;;;4.15;2.25;;;;;;;20.59;49.71;102566.19;4992513;28;20038;-60
2021/10/11 03:09:26;;;;;;;5.00;1.97;;;;;;;20.60;49.33;102567.03;4992591;28;20053;-59
2021/10/11 03:11:54;;;;;;;3.97;2.00;;;;;;;20.58;49.75;102567.13;4991686;28;20268;-60
2021/10/11 03:14:19;;;;;;;4.05;2.30;;;;;;;20.58;49.51;102561.00;4992461;28;20284;-60
2021/10/11 03:16:44;;;;;;;3.90;2.10;;;;;;;20.58;49.55;102561.84;4992673;28;20034;-59
2021/10/11 03:19:10;;;;;;;4.27;2.20;;;;;;;20.57;49.49;102561.94;4991399;28;20026;-59
2021/10/11 03:21:35;;;;;;;4.95;2.40;;;;;;;20.58;49.50;102566.28;4992103;28;20290;-59
2021/10/11 03:24:00;;;;;;;4.18;2.20;;;;;;;20.55;49.58;102559.38;4992581;28;20413;-60
2021/10/11 03:26:25;;;;;;;4.13;2.20;;;;;;;20.55;49.52;102561.19;4991574;28;20029;-59
2021/10/11 03:28:51;;;;;;;3.38;1.80;;;;;;;20.53;49.66;102552.50;4992181;28;20346;-59
2021/10/11 03:31:16;;;;;;;4.03;2.05;;;;;;;20.53;49.45;102545.41;4992219;28;20091;-59
2021/10/11 03:33:44;;;;;;;4.28;1.85;;;;;;;20.53;49.70;102548.03;4991746;28;20134;-59
2021/10/11 03:36:09;;;;;;;3.47;1.80;;;;;;;20.52;49.40;102537.56;4991978;28;20121;-59
2021/10/11 03:38:35;;;;;;;4.57;2.10;;;;;;;20.50;49.46;102539.47;4992671;28;20089;-59
2021/10/11 03:41:00;;;;;;;3.67;1.95;;;;;;;20.50;49.50;102540.31;4991836;28;20031;-59
2021/10/11 03:43:26;;;;;;;4.97;1.83;;;;;;;20.48;49.61;102542.22;4993014;28;20026;-59
2021/10/11 03:45:54;;;;;;;3.13;1.52;;;;;;;20.46;49.56;102544.97;4995837;28;20502;-59
2021/10/11 03:48:20;;;;;;;2.83;1.50;;;;;;;20.46;49.62;102544.13;4995674;28;20042;-60
2021/10/11 03:50:46;;;;;;;3.63;1.80;;;;;;;20.46;49.51;102549.41;4995917;28;20437;-60
2021/10/11 03:53:13;;;;;;;3.15;1.50;;;;;;;20.46;49.48;102549.41;4995018;28;20493;-59
2021/10/11 03:55:40;;;;;;;5.68;1.80;;;;;;;20.45;49.21;102545.88;4996025;28;20466;-59
2021/10/11 03:58:06;;;;;;;3.72;1.52;;;;;;;20.44;49.43;102541.56;4995262;28;20038;-60
2021/10/11 04:00:32;;;;;;;3.42;1.70;;;;;;;20.44;49.58;102552.16;4995290;28;20106;-60
2021/10/11 04:02:58;;;;;;;3.60;1.70;;;;;;;20.43;49.36;102554.91;4995721;28;20042;-59
2021/10/11 04:05:23;;;;;;;3.80;1.70;;;;;;;20.42;49.50;102561.13;4995459;28;20085;-59
2021/10/11 04:07:52;;;;;;;4.87;1.60;;;;;;;20.41;49.34;102552.34;4995188;28;20110;-60
2021/10/11 04:10:24;;;;;;;4.50;1.52;;;;;;;20.43;49.60;102562.84;4995304;28;20326;-59
2021/10/11 04:12:52;;;;;;;3.85;1.60;;;;;;;20.41;49.35;102565.59;4995752;28;20050;-60
2021/10/11 04:15:18;;;;;;;3.13;1.60;;;;;;;20.40;49.59;102569.19;4994573;28;20079;-59
2021/10/11 04:17:43;;;;;;;4.70;1.65;;;;;;;20.41;49.48;102568.25;4995345;28;20069;-59
2021/10/11 04:20:08;;;;;;;4.07;1.50;;;;;;;20.39;49.48;102570.13;4995320;28;20462;-60
2021/10/11 04:22:35;;;;;;;3.45;1.55;;;;;;;20.38;49.48;102562.31;4994449;28;20303;-60
2021/10/11 04:25:00;;;;;;;3.15;1.60;;;;;;;20.36;49.56;102551.81;4994565;28;20072;-59
2021/10/11 04:27:26;;;;;;;3.28;1.50;;;;;;;20.35;49.65;102571.28;4994880;28;20101;-59
2021/10/11 04:29:51;;;;;;;4.45;1.52;;;;;;;20.33;49.52;102565.25;4995019;28;20046;-60
2021/10/11 04:32:16;;;;;;;3.37;1.50;;;;;;;20.32;49.45;102560.03;4995053;28;20030;-60
2021/10/11 04:34:45;;;;;;;3.17;1.42;;;;;;;20.31;49.26;102559.16;4995289;28;20037;-60
2021/10/11 04:37:10;;;;;;;4.93;1.77;;;;;;;20.29;49.32;102572.50;4994636;28;20041;-59
2021/10/11 04:39:35;;;;;;;3.30;1.37;;;;;;;20.29;49.34;102559.25;4995163;28;20452;-59
2021/10/11 04:42:00;;;;;;;3.17;1.50;;;;;;;20.29;49.24;102567.22;4994935;28;20272;-60
2021/10/11 04:44:27;;;;;;;2.67;1.30;;;;;;;20.29;49.43;102561.91;4993765;28;20295;-59
2021/10/11 04:46:52;;;;;;;3.50;1.63;;;;;;;20.28;49.21;102562.00;4994800;28;20034;-60
2021/10/11 04:49:17;;;;;;;3.30;1.40;;;;;;;20.27;49.13;102570.91;4993774;28;20113;-59
2021/10/11 04:51:42;;;;;;;3.13;1.48;;;;;;;20.26;49.11;102555.97;4994791;28;20288;-60
2021/10/11 04:54:09;;;;;;;2.70;1.10;;;;;;;20.25;49.36;102564.84;4994312;28;20116;-60
2021/10/11 04:56:35;;;;;;;3.05;1.15;;;;;;;20.24;49.19;102571.13;4993178;28;20046;-60
2021/10/11 04:59:00;;;;;;;3.13;1.33;;;;;;;20.23;49.11;102564.94;4995107;28;20018;-60
2021/10/11 05:01:25;;;;;;;2.50;1.50;;;;;;;20.22;49.37;102576.50;4994694;28;20038;-59
2021/10/11 05:03:51;;;;;;;2.42;1.30;;;;;;;20.22;49.12;102575.63;4993705;28;20038;-59
2021/10/11 05:06:16;;;;;;;3.17;1.30;;;;;;;20.21;49.17;102560.72;4994383;28;20124;-58
2021/10/11 05:08:41;;;;;;;2.80;1.40;;;;;;;20.20;49.08;102566.94;4994692;28;20311;-59
2021/10/11 05:11:09;;;;;;;2.80;1.25;;;;;;;20.19;49.04;102568.75;4993508;28;20050;-60
2021/10/11 05:13:35;;;;;;;2.95;1.20;;;;;;;20.19;49.14;102562.63;4994758;28;20026;-59
2021/10/11 05:16:04;;;;;;;3.53;1.50;;;;;;;20.17;49.07;102564.50;4994433;28;20034;-60
2021/10/11 05:18:29;;;;;;;3.85;1.27;;;;;;;20.15;49.23;102575.16;4994256;28;20337;-60
2021/10/11 05:20:57;;;;;;;3.35;1.27;;;;;;;20.14;49.31;102568.19;4995077;28;20101;-60
2021/10/11 05:23:26;;;;;;;2.58;1.10;;;;;;;20.14;49.01;102562.91;4994510;28;20108;-59
2021/10/11 05:25:54;;;;;;;3.00;1.30;;;;;;;20.15;49.35;102556.66;4993992;28;20394;-60
2021/10/11 05:28:19;;;;;;;3.15;1.08;;;;;;;20.21;49.60;102564.19;4994241;28;20505;-60
2021/10/11 05:30:45;;;;;;;3.35;1.35;;;;;;;20.27;49.69;102553.22;4994548;28;20116;-60
2021/10/11 05:33:10;;;;;;;2.97;1.47;;;;;;;20.37;49.70;102556.13;4993491;28;20033;-59
2021/10/11 05:35:39;;;;;;;2.47;1.30;;;;;;;20.47;49.67;102559.03;4994590;28;20316;-60
2021/10/11 05:38:05;;;;;;;2.30;1.13;;;;;;;20.54;49.47;102560.34;4994023;28;20544;-59
2021/10/11 05:40:31;;;;;;;3.17;1.45;;;;;;;20.60;49.48;102573.19;4993756;28;20030;-60
2021/10/11 05:42:57;;;;;;;3.45;1.17;;;;;;;20.65;49.24;102571.13;4994468;28;20029;-59
2021/10/11 05:45:23;;;;;;;1.80;1.00;;;;;;;20.72;48.88;102570.75;4993988;28;20066;-61
2021/10/11 05:47:48;;;;;;;3.08;1.25;;;;;;;20.78;48.84;102573.00;4993812;28;20175;-59
2021/10/11 05:50:13;;;;;;;3.00;1.08;;;;;;;20.83;48.79;102568.22;4994289;28;20462;-60
2021/10/11 05:52:39;;;;;;;2.55;1.10;;;;;;;20.89;48.70;102564.34;4993513;28;20126;-59
2021/10/11 05:55:06;;;;;;;2.40;1.00;;;;;;;20.93;48.44;102564.00;4993941;28;20041;-60
2021/10/11 05:57:32;;;;;;;2.72;1.15;;;;;;;20.98;48.40;102569.00;4994053;28;20085;-59
2021/10/11 05:59:58;;;;;;;2.17;1.00;;;;;;;21.01;48.38;102579.41;4993222;28;20026;-59
2021/10/11 06:02:23;;;;;;;3.45;1.20;;;;;;;21.05;47.99;102580.91;4993939;28;20057;-60
2021/10/11 06:04:49;;;;;;;4.03;1.33;;;;;;;21.05;47.66;102578.25;4994172;28;20022;-59
2021/10/11 06:07:14;;;;;;;2.83;1.17;;;;;;;21.09;47.83;102582.38;4992843;28;20287;-60
2021/10/11 06:09:40;;;;;;;2.60;1.10;;;;;;;21.11;47.78;102577.84;4993999;28;20022;-60
2021/10/11 06:12:05;;;;;;;3.20;1.20;;;;;;;21.14;47.57;102572.34;4993565;28;20038;-61
2021/10/11 06:14:31;;;;;;;4.75;1.00;;;;;;;21.18;47.41;102578.28;4992947;28;20485;-60
2021/10/11 06:16:56;;;;;;;2.10;1.00;;;;;;;21.22;47.42;102581.56;4993616;28;20034;-63
2021/10/11 06:19:21;;;;;;;5.18;1.20;;;;;;;21.24;47.60;102569.94;4993510;28;20304;-61
2021/10/11 06:21:49;;;;;;;2.63;1.10;;;;;;;21.27;47.31;102558.25;4992960;28;20475;-60
2021/10/11 06:24:15;;;;;;;2.83;1.17;;;;;;;21.29;47.50;102559.00;4993352;28;20291;-60
2021/10/11 06:26:40;;;;;;;2.97;1.20;;;;;;;21.27;47.58;102559.13;4993651;28;20121;-61
2021/10/11 06:29:06;;;;;;;2.42;0.80;;;;;;;21.23;47.81;102554.97;4992541;28;20272;-60
2021/10/11 06:31:35;;;;;;;2.33;1.00;;;;;;;21.22;48.02;102563.00;4993718;28;20026;-61
2021/10/11 06:34:00;;;;;;;3.30;1.10;;;;;;;21.20;48.07;102569.28;4993484;28;20463;-59
2021/10/11 06:36:28;;;;;;;1.80;0.85;;;;;;;21.20;48.06;102568.41;4992730;28;20029;-60
2021/10/11 06:38:53;;;;;;;5.03;1.15;;;;;;;21.27;48.03;102579.44;4993555;28;20034;-60
2021/10/11 06:41:18;;;;;;;2.92;1.08;;;;;;;21.33;47.85;102579.91;4993159;28;20038;-60
2021/10/11 06:43:44;;;;;;;3.03;1.10;;;;;;;21.42;47.75;102582.88;4992525;28;20424;-60
2021/10/11 06:46:09;;;;;;;2.58;1.00;;;;;;;21.47;47.57;102586.06;4993231;28;20081;-60
2021/10/11 06:48:34;;;;;;;2.58;0.82;;;;;;;21.49;47.69;102589.50;4993500;28;20501;-61
2021/10/11 06:51:00;;;;;;;2.50;0.90;;;;;;;21.52;47.47;102594.59;4992714;28;20030;-61
2021/10/11 06:53:25;;;;;;;2.90;1.13;;;;;;;21.53;47.49;102597.13;4993031;28;20125;-61
2021/10/11 06:55:50;;;;;;;2.83;1.10;;;;;;;21.54;47.54;102605.97;4992603;28;20046;-62
2021/10/11 06:58:16;;;;;;;2.90;0.83;;;;;;;21.54;47.43;102601.50;4992547;28;20041;-61
2021/10/11 07:00:43;;;;;;;5.70;1.10;;;;;;;21.52;47.53;102598.09;4993060;28;20292;-62
2021/10/11 07:03:09;;;;;;;2.88;1.20;;;;;;;21.43;47.86;102597.81;4995455;28;20026;-61
2021/10/11 07:05:34;;;;;;;5.53;1.20;;;;;;;21.41;47.58;102591.78;4994708;28;20036;-62
2021/10/11 07:08:02;;;;;;;2.55;1.00;;;;;;;21.47;47.80;102594.03;4993779;28;20041;-61
2021/10/11 07:10:30;;;;;;;3.70;1.20;;;;;;;21.52;47.87;102591.94;4992850;28;20076;-62
2021/10/11 07:12:55;;;;;;;2.50;1.00;;;;;;;21.55;47.85;102599.69;4993936;28;20038;-62
2021/10/11 07:15:21;;;;;;;4.30;1.13;;;;;;;21.59;47.98;102606.50;4994550;28;20449;-64
2021/10/11 07:17:46;;;;;;;2.20;0.90;;;;;;;21.61;47.49;102609.88;4996026;28;20279;-66
2021/10/11 07:20:11;;;;;;;3.67;1.10;;;;;;;21.65;47.73;102607.84;4994058;28;20026;-64
2021/10/11 07:22:37;;;;;;;4.22;1.10;;;;;;;21.69;47.64;102614.66;4993623;28;20363;-61
2021/10/11 07:25:03;;;;;;;3.42;1.25;;;;;;;21.70;47.63;102601.28;4992298;28;20039;-61
2021/10/11 07:27:34;;;;;;;4.70;1.38;;;;;;;21.73;47.32;102611.69;4992893;28;20072;-61
2021/10/11 07:30:00;;;;;;;3.28;1.00;;;;;;;21.75;47.47;102614.25;4993727;28;20170;-60
2021/10/11 07:32:26;;;;;;;1.95;0.90;;;;;;;21.77;47.23;102609.66;4992193;28;20041;-61
2021/10/11 07:34:51;;;;;;;3.40;1.20;;;;;;;21.80;46.95;102619.22;4993102;28;20022;-61
2021/10/11 07:37:16;;;;;;;2.70;1.00;;;;;;;21.80;47.13;102627.19;4992796;28;20287;-61
2021/10/11 07:39:41;;;;;;;3.45;1.10;;;;;;;21.81;46.90;102632.41;4992118;28;20425;-60
2021/10/11 07:42:09;;;;;;;3.17;1.10;;;;;;;21.80;46.98;102632.50;4992404;28;20041;-60
2021/10/11 07:44:36;;;;;;;3.85;1.05;;;;;;;21.78;46.86;102631.75;4993102;28;20033;-60
2021/10/11 07:47:01;;;;;;;4.93;1.40;;;;;;;21.75;46.83;102640.78;4992589;28;20061;-61
2021/10/11 07:49:27;;;;;;;3.45;1.23;;;;;;;21.74;46.95;102652.34;4992597;28;20022;-61
2021/10/11 07:51:52;;;;;;;3.03;1.00;;;;;;;21.72;46.93;102644.47;4992826;28;20109;-60
2021/10/11 07:54:19;;;;;;;4.47;1.25;;;;;;;21.72;47.04;102646.28;4990428;28;20470;-60
2021/10/11 07:56:45;;;;;;;3.08;1.10;;;;;;;21.70;46.99;102649.06;4992867;28;20037;-62
2021/10/11 07:59:11;;;;;;;4.65;0.95;;;;;;;21.64;47.14;102649.47;4992131;28;20022;-60
2021/10/11 08:01:43;;;;;;;3.05;1.10;;;;;;;21.61;47.45;102647.03;4993425;28;20442;-59
2021/10/11 08:04:08;;;;;;;2.25;1.02;;;;;;;21.62;47.24;102662.00;4992879;28;20038;-60
2021/10/11 08:06:33;;;;;;;2.45;0.95;;;;;;;21.64;47.23;102653.94;4993128;28;20057;-61
2021/10/11 08:08:59;;;;;;;2.60;1.10;;;;;;;21.61;47.32;102641.72;4992921;28;20041;-61
2021/10/11 08:11:24;;;;;;;3.38;1.08;;;;;;;21.58;47.31;102639.28;4992656;28;20112;-60
2021/10/11 08:13:50;;;;;;;3.13;0.90;;;;;;;21.61;47.22;102643.53;4993866;28;20122;-61
2021/10/11 08:16:18;;;;;;;4.18;1.17;;;;;;;21.65;47.20;102645.00;4992416;28;20019;-60
2021/10/11 08:18:43;;;;;;;4.65;1.30;;;;;;;21.67;47.25;102654.56;4992691;28;20070;-62
2021/10/11 08:21:08;;;;;;;5.60;1.60;;;;;;;21.63;47.32;102655.72;4991595;28;20085;-62
2021/10/11 08:23:41;;;;;;;2.88;1.10;;;;;;;21.60;47.45;102663.88;4993573;28;20284;-64
2021/10/11 08:26:10;;;;;;;4.20;1.10;;;;;;;21.62;47.47;102669.97;4992795;28;20114;-61
2021/10/11 08:28:36;;;;;;;5.63;1.55;;;;;;;21.67;47.52;102670.50;4992389;28;20040;-60
2021/10/11 08:31:02;;;;;;;4.13;1.00;;;;;;;21.71;47.42;102660.50;4994140;28;20394;-61
2021/10/11 08:33:27;;;;;;;2.78;1.15;;;;;;;21.70;47.03;102664.97;4996173;28;20023;-63
2021/10/11 08:35:53;;;;;;;3.40;1.17;;;;;;;21.61;47.59;102670.91;4995345;28;20363;-63
2021/10/11 08:38:18;;;;;;;2.80;1.00;;;;;;;21.53;47.93;102670.56;4995907;28;20275;-61
2021/10/11 08:40:47;;;;;;;2.83;1.00;;;;;;;21.44;48.20;102672.00;4996302;28;20042;-63
2021/10/11 08:43:12;;;;;;;3.00;1.00;;;;;;;21.42;48.23;102670.41;4994958;28;20300;-61
2021/10/11 08:45:38;;;;;;;5.22;1.33;;;;;;;21.32;48.36;102663.06;4996784;28;20478;-62
2021/10/11 08:48:04;;;;;;;4.47;1.30;;;;;;;21.25;48.81;102661.75;4996204;28;20046;-61
2021/10/11 08:50:29;;;;;;;3.58;1.13;;;;;;;21.19;48.64;102675.44;4995344;28;20069;-61
2021/10/11 08:52:54;;;;;;;6.05;1.20;;;;;;;21.13;48.94;102667.88;4995854;28;20050;-61
2021/10/11 08:55:20;;;;;;;4.20;1.20;;;;;;;21.09;49.17;102666.38;4995675;28;20022;-61
2021/10/11 08:57:45;;;;;;;3.15;1.10;;;;;;;21.06;49.14;102671.88;4995701;28;20041;-62
2021/10/11 09:00:16;;;;;;;5.22;1.05;;;;;;;21.04;49.39;102668.47;4995712;28;20030;-62
2021/10/11 09:03:02;;;;;;;4.32;1.00;;;;;;;21.01;49.36;102673.03;4994557;28;20039;-62
2021/10/11 09:05:33;;;;;;;2.42;0.90;;;;;;;21.00;49.23;102681.09;4995318;28;20481;-62
2021/10/11 09:08:00;;;;;;;2.83;0.88;;;;;;;21.01;49.41;102678.34;4995508;28;20053;-60
2021/10/11 09:10:26;;;;;;;3.20;1.17;;;;;;;21.07;49.16;102671.78;4993476;28;20042;-61
2021/10/11 09:12:55;;;;;;;2.90;1.00;;;;;;;21.12;49.14;102667.03;4995360;28;20034;-61
2021/10/11 09:15:20;;;;;;;4.82;0.90;;;;;;;21.18;48.98;102676.38;4994993;28;20057;-60
2021/10/11 09:18:03;;;;;;;4.15;1.17;;;;;;;21.22;48.84;102666.41;4994254;28;20494;-61
2021/10/11 09:20:29;;;;;;;2.78;0.80;;;;;;;21.25;48.79;102668.88;4995300;28;20109;-62
2021/10/11 09:23:01;;;;;;;2.60;1.10;;;;;;;21.26;48.61;102668.78;4995124;28;20077;-62
2021/10/11 09:25:39;;;;;;;3.00;0.90;;;;;;;21.28;48.79;102663.38;4993573;28;20030;-60
2021/10/11 09:28:06;;;;;;;4.05;1.00;;;;;;;21.27;48.67;102666.97;4994634;28;20036;-61
2021/10/11 09:30:34;;;;;;;3.80;0.93;;;;;;;21.25;48.70;102661.75;4994815;28;20031;-61
2021/10/11 09:33:11;;;;;;;5.57;1.23;;;;;;;21.26;48.83;102666.13;4994733;28;20105;-62
2021/10/11 09:35:37;;;;;;;2.47;1.02;;;;;;;21.27;48.79;102651.91;4994743;28;20402;-62
2021/10/11 09:38:04;;;;;;;3.05;1.10;;;;;;;21.26;48.75;102657.31;4993522;28;20018;-61
2021/10/11 09:40:39;;;;;;;2.30;1.02;;;;;;;21.24;48.81;102664.50;4994531;28;20478;-61
2021/10/11 09:43:16;;;;;;;4.55;1.10;;;;;;;21.21;48.78;102668.22;4994190;28;20042;-61
2021/10/11 09:45:42;;;;;;;3.95;0.98;;;;;;;21.19;48.89;102673.63;4993877;28;20030;-62
2021/10/11 09:48:08;;;;;;;2.78;1.00;;;;;;;21.19;48.96;102670.16;4994346;28;20057;-62
2021/10/11 09:50:38;;;;;;;3.75;1.10;;;;;;;21.18;48.93;102671.09;4994379;28;20439;-60
2021/10/11 09:53:05;;;;;;;3.22;1.00;;;;;;;21.17;49.10;102675.53;4993177;28;20108;-62
2021/10/11 09:55:33;;;;;;;3.45;1.10;;;;;;;21.22;49.28;102669.06;4995163;28;20026;-60
2021/10/11 09:57:59;;;;;;;5.57;1.17;;;;;;;21.30;48.95;102669.41;4995935;28;20053;-61
2021/10/11 10:00:24;;;;;;;3.90;0.90;;;;;;;21.38;48.97;102680.38;4994413;28;20057;-60
2021/10/11 10:02:54;;;;;;;4.13;0.95;;;;;;;21.44;48.81;102673.81;4994408;28;20062;-60
2021/10/11 10:05:41;;;;;;;2.38;0.90;;;;;;;21.51;48.75;102683.94;4995042;28;20026;-60
2021/10/11 10:08:09;;;;;;;3.35;1.10;;;;;;;21.55;48.55;102682.78;4994630;28;20348;-61
2021/10/11 10:10:38;;;;;;;4.10;0.95;;;;;;;21.61;48.54;102672.72;4995146;28;20418;-60
2021/10/11 10:13:20;;;;;;;2.90;0.85;;;;;;;21.66;48.32;102678.56;4993429;28;20038;-61
2021/10/11 10:15:47;;;;;;;3.45;1.00;;;;;;;21.70;48.27;102657.00;4993894;28;20041;-61
2021/10/11 10:18:15;;;;;;;4.90;0.95;;;;;;;21.77;48.26;102661.91;4993488;28;20058;-61
2021/10/11 10:20:58;;;;;;;4.63;1.00;;;;;;;21.80;48.21;102672.31;4993447;28;20023;-62
2021/10/11 10:23:25;;;;;;;3.47;0.80;;;;;;;21.83;48.13;102670.28;4993523;28;20026;-62
2021/10/11 10:25:55;;;;;;;2.30;0.90;;;;;;;21.84;48.10;102669.34;4993670;28;20459;-63
2021/10/11 10:28:22;;;;;;;2.80;1.55;;;;;;;21.83;48.17;102675.59;4992589;28;20030;-63
2021/10/11 10:31:02;;;;;;;3.13;0.90;;;;;;;21.84;48.20;102677.31;4993560;28;20528;-62
2021/10/11 10:33:41;;;;;;;3.38;0.90;;;;;;;21.86;48.07;102671.91;4994706;28;20081;-64
2021/10/11 10:36:24;;;;;;;2.50;0.80;;;;;;;21.88;48.14;102669.97;4992749;28;20065;-61
2021/10/11 10:39:00;;;;;;;5.38;1.10;;;;;;;21.93;48.10;102681.13;4993721;28;20026;-62
2021/10/11 10:41:28;;;;;;;4.07;0.77;;;;;;;21.93;48.11;102684.63;4992759;28;20023;-66
2021/10/11 10:43:54;;;;;;;1.73;0.70;;;;;;;21.91;47.93;102675.91;4993387;28;20503;-65
2021/10/11 10:46:19;;;;;;;3.50;0.90;;;;;;;21.89;48.32;102669.03;4993281;28;20101;-65
2021/10/11 10:48:54;;;;;;;3.17;0.90;;;;;;;21.87;48.30;102665.63;4992759;28;20413;-64
2021/10/11 10:51:20;;;;;;;2.17;0.73;;;;;;;21.86;48.39;102670.09;4993211;28;20147;-66
2021/10/11 10:54:03;;;;;;;3.13;0.90;;;;;;;21.85;48.27;102667.53;4992439;28;20553;-66
2021/10/11 10:56:28;;;;;;;3.33;0.88;;;;;;;21.84;48.61;102671.13;4992783;28;20038;-65
2021/10/11 10:59:03;;;;;;;2.87;0.73;;;;;;;21.82;48.59;102668.59;4993345;28;20089;-67
2021/10/11 11:01:28;;;;;;;2.28;0.68;;;;;;;21.80;48.63;102673.16;4993395;28;20272;-63
2021/10/11 11:03:54;;;;;;;2.55;0.75;;;;;;;21.82;48.87;102678.34;4992356;28;20038;-62
2021/10/11 11:06:31;;;;;;;2.60;0.70;;;;;;;21.83;48.79;102674.75;4993874;28;20023;-60
2021/10/11 11:08:59;;;;;;;2.95;0.80;;;;;;;21.87;48.76;102669.13;4993294;28;20493;-64
2021/10/11 11:11:29;;;;;;;4.47;1.10;;;;;;;21.91;48.53;102672.41;4992448;28;20040;-61
2021/10/11 11:13:56;;;;;;;2.70;0.82;;;;;;;21.93;48.41;102668.69;4993929;28;20030;-62
2021/10/11 11:16:29;;;;;;;2.22;0.80;;;;;;;21.97;48.44;102666.69;4992079;28;20030;-63
2021/10/11 11:18:55;;;;;;;2.88;0.73;;;;;;;21.97;48.53;102661.38;4993396;28;20034;-63
2021/10/11 11:21:21;;;;;;;2.47;0.70;;;;;;;21.94;48.38;102656.28;4993046;28;20030;-61
2021/10/11 11:23:46;;;;;;;2.25;0.88;;;;;;;21.93;48.57;102651.91;4992520;28;20034;-60